createdAt,value
2019-02-02T00:04:04.719Z,21.20
2019-02-02T00:09:00.616Z,19.23
2019-02-02T00:13:56.545Z,21.20
2019-02-02T00:18:52.551Z,23.60
2019-02-02T00:24:09.050Z,22.53
2019-02-02T00:29:05.316Z,22.83
2019-02-02T00:34:01.301Z,22.40
2019-02-02T00:38:57.201Z,23.03
2019-02-02T00:43:53.118Z,20.33
2019-02-02T00:48:48.989Z,24.20
2019-02-02T00:53:45.790Z,22.30
2019-02-02T00:58:41.786Z,20.83
2019-02-02T01:03:37.774Z,25.23
2019-02-02T01:08:33.672Z,21.50
2019-02-02T01:13:29.609Z,22.87
2019-02-02T01:18:25.510Z,23.83
2019-02-02T01:23:21.408Z,22.87
2019-02-02T01:28:17.400Z,22.47
2019-02-02T01:33:13.318Z,23.57
2019-02-02T01:38:29.096Z,21.10
2019-02-02T01:43:25.097Z,22.87
2019-02-02T01:48:21.094Z,22.63
2019-02-02T01:53:16.993Z,20.70
2019-02-02T01:58:16.854Z,23.80
2019-02-02T02:03:11.000Z,21.00
2019-02-02T02:08:06.895Z,22.27
2019-02-02T02:13:44.482Z,20.50
2019-02-02T02:18:40.384Z,20.67
2019-02-02T02:23:37.339Z,20.93
2019-02-02T02:28:33.365Z,21.07
2019-02-02T02:33:29.269Z,21.43
2019-02-02T02:38:25.165Z,21.77
2019-02-02T02:43:21.081Z,22.37
2019-02-02T02:48:16.969Z,22.60
2019-02-02T02:53:13.045Z,21.80
2019-02-02T02:58:08.943Z,22.77
2019-02-02T03:03:04.952Z,20.93
2019-02-02T03:08:00.846Z,19.80
2019-02-02T03:12:56.751Z,20.50
2019-02-02T03:18:34.342Z,19.73
2019-02-02T03:23:31.561Z,21.40
2019-02-02T03:28:27.461Z,19.97
2019-02-02T03:33:23.444Z,22.53
2019-02-02T03:38:19.338Z,20.47
2019-02-02T03:43:15.344Z,21.77
2019-02-02T03:48:11.244Z,22.97
2019-02-02T03:53:07.130Z,21.67
2019-02-02T03:58:03.224Z,20.97
2019-02-02T04:02:59.143Z,17.57
2019-02-02T04:07:55.362Z,22.17
2019-02-02T04:12:51.261Z,23.40
2019-02-02T04:17:47.288Z,23.13
2019-02-02T04:22:43.386Z,21.93
2019-02-02T04:27:39.389Z,23.27
2019-02-02T04:32:35.384Z,24.03
2019-02-02T04:37:31.288Z,24.87
2019-02-02T04:42:27.200Z,23.23
2019-02-02T04:47:23.076Z,22.70
2019-02-02T04:52:19.106Z,22.97
2019-02-02T04:57:14.986Z,23.83
2019-02-02T05:02:10.885Z,22.40
2019-02-02T05:07:06.874Z,22.27
2019-02-02T05:12:03.016Z,22.83
2019-02-02T05:16:58.905Z,23.90
2019-02-02T05:21:54.816Z,21.87
2019-02-02T05:26:50.725Z,23.90
2019-02-02T05:31:46.645Z,21.17
2019-02-02T05:36:42.753Z,23.27
2019-02-02T05:41:38.641Z,23.13
2019-02-02T05:46:34.526Z,26.63
2019-02-02T05:51:30.517Z,24.90
2019-02-02T05:56:26.535Z,24.03
2019-02-02T06:01:22.544Z,23.73
2019-02-02T06:06:18.419Z,24.80
2019-02-02T06:11:14.312Z,25.67
2019-02-02T06:16:10.197Z,23.63
2019-02-02T06:21:06.092Z,24.20
2019-02-02T06:26:01.986Z,27.70
2019-02-02T06:31:00.128Z,24.87
2019-02-02T06:35:55.779Z,26.63
2019-02-02T06:40:51.688Z,25.00
2019-02-02T06:45:47.584Z,25.60
2019-02-02T06:50:43.474Z,23.10
2019-02-02T06:55:39.461Z,29.60
2019-02-02T07:00:35.365Z,27.20
2019-02-02T07:05:33.749Z,28.37
2019-02-02T07:10:29.164Z,30.27
2019-02-02T07:15:27.024Z,32.60
2019-02-02T07:20:23.023Z,29.33
2019-02-02T07:25:19.067Z,29.60
2019-02-02T07:30:28.210Z,29.87
2019-02-02T07:35:15.439Z,29.30
2019-02-02T07:40:14.541Z,23.87
2019-02-02T07:45:19.012Z,25.57
2019-02-02T07:50:15.901Z,27.50
2019-02-02T07:55:14.197Z,26.00
2019-02-02T08:00:16.657Z,31.70
2019-02-02T08:05:12.813Z,26.67
2019-02-02T08:10:11.186Z,30.90
2019-02-02T08:15:10.609Z,32.83
2019-02-02T08:20:09.989Z,33.27
2019-02-02T08:25:09.217Z,29.57
2019-02-02T08:30:12.166Z,31.83
2019-02-02T08:35:08.552Z,26.77
2019-02-02T08:40:08.160Z,28.27
2019-02-02T08:45:06.558Z,31.30
2019-02-02T08:50:06.273Z,33.70
2019-02-02T08:55:03.382Z,34.57
2019-02-02T08:59:59.870Z,33.00
2019-02-02T09:04:56.003Z,34.37
2019-02-02T09:09:52.001Z,23.00
2019-02-02T09:14:47.908Z,25.50
2019-02-02T09:19:43.811Z,31.73
2019-02-02T09:24:40.426Z,34.03
2019-02-02T09:29:36.281Z,22.27
2019-02-02T09:34:32.169Z,35.73
2019-02-02T09:39:28.059Z,35.17
2019-02-02T09:44:23.948Z,35.83
2019-02-02T09:49:19.837Z,39.10
2019-02-02T09:54:26.353Z,35.50
2019-02-02T09:59:14.113Z,27.17
2019-02-02T10:04:10.129Z,33.67
2019-02-02T10:09:06.524Z,23.33
2019-02-02T10:14:03.375Z,34.57
2019-02-02T10:18:59.819Z,34.13
2019-02-02T10:23:58.226Z,34.73
2019-02-02T10:28:54.219Z,36.30
2019-02-02T10:33:50.378Z,36.00
2019-02-02T10:38:46.284Z,32.13
2019-02-02T10:43:49.404Z,37.43
2019-02-02T10:48:45.292Z,22.27
2019-02-02T10:53:41.200Z,38.10
2019-02-02T10:58:38.087Z,39.67
2019-02-02T11:03:33.982Z,38.50
2019-02-02T11:08:29.930Z,35.67
2019-02-02T11:13:26.044Z,40.03
2019-02-02T11:18:22.128Z,36.57
2019-02-02T11:23:18.222Z,25.80
2019-02-02T11:28:14.213Z,37.87
2019-02-02T11:33:10.220Z,38.93
2019-02-02T11:38:06.259Z,37.53
2019-02-02T11:43:02.461Z,41.43
2019-02-02T11:47:58.356Z,39.70
2019-02-02T11:52:54.337Z,37.70
2019-02-02T11:57:50.311Z,39.37
2019-02-02T12:02:49.467Z,39.10
2019-02-02T12:07:44.031Z,34.50
2019-02-02T12:12:42.130Z,37.50
2019-02-02T12:17:37.806Z,40.03
2019-02-02T12:22:33.716Z,38.17
2019-02-02T12:27:29.605Z,37.47
2019-02-02T12:32:47.207Z,38.20
2019-02-02T12:38:25.052Z,38.00
2019-02-02T12:48:45.797Z,33.67
2019-02-02T12:53:42.429Z,38.70
2019-02-02T12:58:39.131Z,41.00
2019-02-02T13:03:35.914Z,40.23
2019-02-02T13:08:32.716Z,40.47
2019-02-02T13:13:28.655Z,39.10
2019-02-02T13:18:24.543Z,38.53
2019-02-02T13:23:20.448Z,41.13
2019-02-02T13:28:16.340Z,46.30
2019-02-02T13:33:12.231Z,41.57
2019-02-02T13:38:08.221Z,44.40
2019-02-02T13:43:04.822Z,42.80
2019-02-02T13:48:00.680Z,41.77
2019-02-02T13:52:56.593Z,42.20
2019-02-02T13:57:52.575Z,40.57
2019-02-02T14:03:01.592Z,41.30
2019-02-02T14:07:46.961Z,32.33
2019-02-02T14:12:42.875Z,42.53
2019-02-02T14:17:38.761Z,45.67
2019-02-02T14:22:34.653Z,41.13
2019-02-02T14:27:30.546Z,36.73
2019-02-02T14:32:26.431Z,44.90
2019-02-02T14:37:22.319Z,38.70
2019-02-02T14:42:18.530Z,43.43
2019-02-02T14:47:17.353Z,42.17
2019-02-02T14:57:38.571Z,41.97
2019-02-02T15:02:35.374Z,43.37
2019-02-02T15:12:47.848Z,47.27
2019-02-02T15:17:44.816Z,49.03
2019-02-02T15:28:05.305Z,49.17
2019-02-02T15:33:01.304Z,45.40
2019-02-02T15:37:57.217Z,50.50
2019-02-02T15:42:54.140Z,49.43
2019-02-02T15:47:50.722Z,48.93
2019-02-02T15:52:46.708Z,52.53
2019-02-02T15:57:42.692Z,47.87
2019-02-02T16:02:39.447Z,51.20
2019-02-02T16:07:56.106Z,49.80
2019-02-02T16:12:52.806Z,44.33
2019-02-02T16:17:50.162Z,46.00
2019-02-02T16:33:25.749Z,41.43
2019-02-02T16:38:42.543Z,51.13
2019-02-02T16:43:39.451Z,45.77
2019-02-02T16:48:36.589Z,50.10
2019-02-02T16:54:14.719Z,53.27
2019-02-02T16:59:11.677Z,52.53
2019-02-02T17:04:15.358Z,52.07
2019-02-02T17:09:47.089Z,50.57
2019-02-02T17:14:42.998Z,50.30
2019-02-02T17:19:39.936Z,52.67
2019-02-02T17:24:36.527Z,40.00
2019-02-02T17:29:32.553Z,49.13
2019-02-02T17:34:28.522Z,51.73
2019-02-02T17:44:40.662Z,48.47
2019-02-02T17:49:36.900Z,50.43
2019-02-02T17:54:53.027Z,48.67
2019-02-02T17:59:50.306Z,51.57
2019-02-02T18:04:46.389Z,49.97
2019-02-02T18:10:03.515Z,49.80
2019-02-02T18:15:00.537Z,45.73
2019-02-02T18:20:19.047Z,49.47
2019-02-02T18:25:37.098Z,45.80
2019-02-02T18:36:12.609Z,51.97
2019-02-02T18:41:08.828Z,52.80
2019-02-02T18:46:04.951Z,51.87
2019-02-02T18:51:00.895Z,54.10
2019-02-02T18:56:38.899Z,52.23
2019-02-02T19:02:16.646Z,51.17
2019-02-02T19:07:13.947Z,53.67
2019-02-02T19:12:10.052Z,51.30
2019-02-02T19:17:06.384Z,54.73
2019-02-02T19:22:02.409Z,58.00
2019-02-02T19:26:58.389Z,60.83
2019-02-02T19:31:54.477Z,53.77
2019-02-02T19:36:50.461Z,51.53
2019-02-02T19:41:46.412Z,54.07
2019-02-02T19:47:02.905Z,53.60
2019-02-02T19:51:58.924Z,42.60
2019-02-02T19:56:54.820Z,44.20
2019-02-02T20:01:50.749Z,43.47
2019-02-02T20:06:46.753Z,43.90
2019-02-02T20:11:42.652Z,61.27
2019-02-02T20:16:38.567Z,53.47
2019-02-02T20:21:34.471Z,54.00
2019-02-02T20:26:30.438Z,65.07
2019-02-02T20:31:26.375Z,63.73
2019-02-02T20:36:22.312Z,58.57
2019-02-02T20:41:18.276Z,47.90
2019-02-02T20:46:14.302Z,51.73
2019-02-02T20:51:10.235Z,48.80
2019-02-02T20:56:06.366Z,60.13
2019-02-02T21:01:43.908Z,62.83
2019-02-02T21:06:39.928Z,43.10
2019-02-02T21:11:35.950Z,39.93
2019-02-02T21:16:31.887Z,57.17
2019-02-02T21:21:27.796Z,57.97
2019-02-02T21:26:25.606Z,31.07
2019-02-02T21:31:21.580Z,46.27
2019-02-02T21:36:17.530Z,44.47
2019-02-02T21:41:18.398Z,48.93
2019-02-02T21:46:13.347Z,40.70
2019-02-02T21:51:09.242Z,50.90
2019-02-02T21:56:13.789Z,50.47
2019-02-02T22:01:09.885Z,51.50
2019-02-02T22:11:09.851Z,40.13
2019-02-02T22:16:05.761Z,51.67
2019-02-02T22:21:01.768Z,43.83
2019-02-02T22:25:57.669Z,26.03
2019-02-02T22:30:53.564Z,47.93
2019-02-02T22:35:51.382Z,44.17
2019-02-02T22:40:47.537Z,51.37
2019-02-02T22:45:43.464Z,43.40
2019-02-02T22:50:41.301Z,38.17
2019-02-02T22:55:37.411Z,33.63
2019-02-02T23:01:13.699Z,43.57
2019-02-02T23:06:49.543Z,37.07
2019-02-02T23:12:25.849Z,33.57
2019-02-02T23:22:26.116Z,28.97
2019-02-02T23:32:38.348Z,44.83
2019-02-02T23:37:34.506Z,38.80
2019-02-02T23:42:30.408Z,38.93
2019-02-02T23:47:26.358Z,36.37
2019-02-02T23:52:22.266Z,46.37
2019-02-02T23:57:18.166Z,41.37
